sensor_id;sensor_type;location;lat;lon;timestamp;temperature;humidity
10433;DHT22;5263;48.680;9.004;2023-02-28T00:00:33;-2.80;99.90
10433;DHT22;5263;48.680;9.004;2023-02-28T00:03:00;-2.80;99.90
10433;DHT22;5263;48.680;9.004;2023-02-28T00:05:26;-2.90;99.90
10433;DHT22;5263;48.680;9.004;2023-02-28T00:07:52;-2.60;99.90
10433;DHT22;5263;48.680;9.004;2023-02-28T00:10:20;-2.70;99.90
10433;DHT22;5263;48.680;9.004;2023-02-28T00:12:47;-2.70;99.90
10433;DHT22;5263;48.680;9.004;2023-02-28T00:15:13;-2.60;99.90
10433;DHT22;5263;48.680;9.004;2023-02-28T00:17:39;-2.80;99.90
10433;DHT22;5263;48.680;9.004;2023-02-28T00:20:06;-2.70;99.90
10433;DHT22;5263;48.680;9.004;2023-02-28T00:22:36;-2.70;99.90
10433;DHT22;5263;48.680;9.004;2023-02-28T00:25:03;-2.90;99.90
10433;DHT22;5263;48.680;9.004;2023-02-28T00:27:29;-2.80;99.90
10433;DHT22;5263;48.680;9.004;2023-02-28T00:29:55;-3.00;99.90
10433;DHT22;5263;48.680;9.004;2023-02-28T00:32:20;-3.10;99.90
10433;DHT22;5263;48.680;9.004;2023-02-28T00:34:46;-3.20;99.90
10433;DHT22;5263;48.680;9.004;2023-02-28T00:37:12;-3.20;99.90
10433;DHT22;5263;48.680;9.004;2023-02-28T00:39:38;-3.30;99.90
10433;DHT22;5263;48.680;9.004;2023-02-28T00:42:05;-3.10;99.90
10433;DHT22;5263;48.680;9.004;2023-02-28T00:44:31;-3.20;99.90
10433;DHT22;5263;48.680;9.004;2023-02-28T00:46:58;-3.10;99.90
10433;DHT22;5263;48.680;9.004;2023-02-28T00:49:24;-3.20;99.90
10433;DHT22;5263;48.680;9.004;2023-02-28T00:51:51;-3.20;99.90
10433;DHT22;5263;48.680;9.004;2023-02-28T00:54:16;-3.10;99.90
10433;DHT22;5263;48.680;9.004;2023-02-28T00:56:42;-3.20;99.90
10433;DHT22;5263;48.680;9.004;2023-02-28T00:59:08;-3.20;99.90
10433;DHT22;5263;48.680;9.004;2023-02-28T01:01:34;-3.30;99.90
10433;DHT22;5263;48.680;9.004;2023-02-28T01:04:00;-3.30;99.90
10433;DHT22;5263;48.680;9.004;2023-02-28T01:06:26;-3.20;99.90
10433;DHT22;5263;48.680;9.004;2023-02-28T01:08:52;-3.20;99.90
10433;DHT22;5263;48.680;9.004;2023-02-28T01:11:18;-3.10;99.90
10433;DHT22;5263;48.680;9.004;2023-02-28T01:13:44;-3.20;99.90
10433;DHT22;5263;48.680;9.004;2023-02-28T01:16:10;-3.20;99.90
10433;DHT22;5263;48.680;9.004;2023-02-28T01:18:37;-3.20;99.90
10433;DHT22;5263;48.680;9.004;2023-02-28T01:21:08;-3.30;99.90
10433;DHT22;5263;48.680;9.004;2023-02-28T01:23:33;-3.30;99.90
10433;DHT22;5263;48.680;9.004;2023-02-28T01:26:17;-3.40;99.90
10433;DHT22;5263;48.680;9.004;2023-02-28T01:28:43;-3.40;99.90
10433;DHT22;5263;48.680;9.004;2023-02-28T01:31:09;-3.30;99.90
10433;DHT22;5263;48.680;9.004;2023-02-28T01:33:35;-3.20;99.90
10433;DHT22;5263;48.680;9.004;2023-02-28T01:36:10;-3.30;99.90
10433;DHT22;5263;48.680;9.004;2023-02-28T01:38:36;-3.40;99.90
10433;DHT22;5263;48.680;9.004;2023-02-28T01:41:02;-3.40;99.90
10433;DHT22;5263;48.680;9.004;2023-02-28T01:43:31;-3.30;99.90
10433;DHT22;5263;48.680;9.004;2023-02-28T01:45:58;-3.30;99.90
10433;DHT22;5263;48.680;9.004;2023-02-28T01:48:32;-3.30;99.90
10433;DHT22;5263;48.680;9.004;2023-02-28T01:51:05;-3.40;99.90
10433;DHT22;5263;48.680;9.004;2023-02-28T01:53:36;-3.40;99.90
10433;DHT22;5263;48.680;9.004;2023-02-28T01:56:05;-3.50;99.90
10433;DHT22;5263;48.680;9.004;2023-02-28T01:58:32;-3.50;99.90
10433;DHT22;5263;48.680;9.004;2023-02-28T02:00:58;-3.30;99.90
10433;DHT22;5263;48.680;9.004;2023-02-28T02:03:24;-3.50;99.90
10433;DHT22;5263;48.680;9.004;2023-02-28T02:05:50;-3.60;99.90
10433;DHT22;5263;48.680;9.004;2023-02-28T02:08:23;-3.60;99.90
10433;DHT22;5263;48.680;9.004;2023-02-28T02:11:01;-3.60;99.90
10433;DHT22;5263;48.680;9.004;2023-02-28T02:13:34;-3.50;99.90
10433;DHT22;5263;48.680;9.004;2023-02-28T02:16:17;-3.30;99.90
10433;DHT22;5263;48.680;9.004;2023-02-28T02:38:03;-3.50;99.90
10433;DHT22;5263;48.680;9.004;2023-02-28T02:40:43;-3.50;99.90
10433;DHT22;5263;48.680;9.004;2023-02-28T02:43:18;-3.40;99.90
10433;DHT22;5263;48.680;9.004;2023-02-28T02:45:57;-3.50;99.90
10433;DHT22;5263;48.680;9.004;2023-02-28T02:48:27;-3.50;99.90
10433;DHT22;5263;48.680;9.004;2023-02-28T02:50:58;-3.50;99.90
10433;DHT22;5263;48.680;9.004;2023-02-28T02:53:32;-3.40;99.90
10433;DHT22;5263;48.680;9.004;2023-02-28T02:56:00;-3.40;99.90
10433;DHT22;5263;48.680;9.004;2023-02-28T02:58:30;-3.40;99.90
10433;DHT22;5263;48.680;9.004;2023-02-28T03:01:00;-3.30;99.90
10433;DHT22;5263;48.680;9.004;2023-02-28T03:03:28;-3.30;99.90
10433;DHT22;5263;48.680;9.004;2023-02-28T03:05:59;-3.40;99.90
10433;DHT22;5263;48.680;9.004;2023-02-28T03:08:27;-3.20;99.90
10433;DHT22;5263;48.680;9.004;2023-02-28T03:10:58;-3.40;99.90
10433;DHT22;5263;48.680;9.004;2023-02-28T03:13:55;-3.30;99.90
10433;DHT22;5263;48.680;9.004;2023-02-28T03:16:49;-3.20;99.90
10433;DHT22;5263;48.680;9.004;2023-02-28T03:19:34;-3.30;99.90
10433;DHT22;5263;48.680;9.004;2023-02-28T03:22:10;-3.30;99.90
10433;DHT22;5263;48.680;9.004;2023-02-28T03:27:11;-3.00;99.90
10433;DHT22;5263;48.680;9.004;2023-02-28T03:29:47;-3.00;99.90
10433;DHT22;5263;48.680;9.004;2023-02-28T03:35:17;-3.10;99.90
10433;DHT22;5263;48.680;9.004;2023-02-28T03:37:49;-3.00;99.90
10433;DHT22;5263;48.680;9.004;2023-02-28T03:40:25;-3.00;99.90
10433;DHT22;5263;48.680;9.004;2023-02-28T03:42:59;-3.10;99.90
10433;DHT22;5263;48.680;9.004;2023-02-28T03:45:28;-3.10;99.90
10433;DHT22;5263;48.680;9.004;2023-02-28T03:50:51;-2.80;99.90
10433;DHT22;5263;48.680;9.004;2023-02-28T03:53:32;-2.90;99.90
10433;DHT22;5263;48.680;9.004;2023-02-28T03:58:54;-2.70;99.90
10433;DHT22;5263;48.680;9.004;2023-02-28T04:01:39;-2.70;99.90
10433;DHT22;5263;48.680;9.004;2023-02-28T04:04:07;-2.60;99.90
10433;DHT22;5263;48.680;9.004;2023-02-28T04:06:34;-2.80;99.90
10433;DHT22;5263;48.680;9.004;2023-02-28T04:09:00;-3.00;99.90
10433;DHT22;5263;48.680;9.004;2023-02-28T04:11:35;-2.90;99.90
10433;DHT22;5263;48.680;9.004;2023-02-28T04:14:02;-2.90;99.90
10433;DHT22;5263;48.680;9.004;2023-02-28T04:16:29;-2.80;99.90
10433;DHT22;5263;48.680;9.004;2023-02-28T04:18:55;-2.90;99.90
10433;DHT22;5263;48.680;9.004;2023-02-28T04:21:29;-2.80;99.90
10433;DHT22;5263;48.680;9.004;2023-02-28T04:23:55;-2.70;99.90
10433;DHT22;5263;48.680;9.004;2023-02-28T04:26:31;-2.60;99.90
10433;DHT22;5263;48.680;9.004;2023-02-28T04:28:57;-2.70;99.90
10433;DHT22;5263;48.680;9.004;2023-02-28T04:31:23;-2.80;99.90
10433;DHT22;5263;48.680;9.004;2023-02-28T04:33:49;-2.70;99.90
10433;DHT22;5263;48.680;9.004;2023-02-28T04:36:15;-2.70;99.90
10433;DHT22;5263;48.680;9.004;2023-02-28T04:38:43;-2.60;99.90
10433;DHT22;5263;48.680;9.004;2023-02-28T04:41:09;-2.60;99.90
10433;DHT22;5263;48.680;9.004;2023-02-28T04:43:34;-2.60;99.90
10433;DHT22;5263;48.680;9.004;2023-02-28T04:46:03;-2.60;99.90
10433;DHT22;5263;48.680;9.004;2023-02-28T04:48:31;-2.80;99.90
10433;DHT22;5263;48.680;9.004;2023-02-28T04:51:01;-2.60;99.90
10433;DHT22;5263;48.680;9.004;2023-02-28T04:53:29;-2.70;99.90
10433;DHT22;5263;48.680;9.004;2023-02-28T04:55:55;-2.70;99.90
10433;DHT22;5263;48.680;9.004;2023-02-28T04:58:21;-2.60;99.90
10433;DHT22;5263;48.680;9.004;2023-02-28T05:00:52;-2.50;99.90
10433;DHT22;5263;48.680;9.004;2023-02-28T05:03:18;-2.00;99.90
10433;DHT22;5263;48.680;9.004;2023-02-28T05:05:44;-1.80;99.90
10433;DHT22;5263;48.680;9.004;2023-02-28T05:08:10;-1.40;99.90
10433;DHT22;5263;48.680;9.004;2023-02-28T05:10:36;-1.30;99.90
10433;DHT22;5263;48.680;9.004;2023-02-28T05:13:02;-1.90;99.90
10433;DHT22;5263;48.680;9.004;2023-02-28T05:15:27;-1.70;99.90
10433;DHT22;5263;48.680;9.004;2023-02-28T05:17:53;-1.60;99.90
10433;DHT22;5263;48.680;9.004;2023-02-28T05:20:18;-1.70;99.90
10433;DHT22;5263;48.680;9.004;2023-02-28T05:22:44;-1.70;99.90
10433;DHT22;5263;48.680;9.004;2023-02-28T05:25:21;-1.80;99.90
10433;DHT22;5263;48.680;9.004;2023-02-28T05:27:48;-1.90;99.90
10433;DHT22;5263;48.680;9.004;2023-02-28T05:30:14;-1.90;99.90
10433;DHT22;5263;48.680;9.004;2023-02-28T05:32:41;-2.20;99.90
10433;DHT22;5263;48.680;9.004;2023-02-28T05:35:12;-2.00;99.90
10433;DHT22;5263;48.680;9.004;2023-02-28T05:37:38;-2.20;99.90
10433;DHT22;5263;48.680;9.004;2023-02-28T05:40:05;-2.10;99.90
10433;DHT22;5263;48.680;9.004;2023-02-28T05:42:32;-2.20;99.90
10433;DHT22;5263;48.680;9.004;2023-02-28T05:44:58;-2.10;99.90
10433;DHT22;5263;48.680;9.004;2023-02-28T05:47:24;-2.40;99.90
10433;DHT22;5263;48.680;9.004;2023-02-28T05:49:50;-2.50;99.90
10433;DHT22;5263;48.680;9.004;2023-02-28T05:52:15;-2.50;99.90
10433;DHT22;5263;48.680;9.004;2023-02-28T05:54:41;-2.40;99.90
10433;DHT22;5263;48.680;9.004;2023-02-28T05:57:07;-2.20;99.90
10433;DHT22;5263;48.680;9.004;2023-02-28T05:59:32;-2.40;99.90
10433;DHT22;5263;48.680;9.004;2023-02-28T06:01:58;-2.30;99.90
10433;DHT22;5263;48.680;9.004;2023-02-28T06:04:24;-2.20;99.90
10433;DHT22;5263;48.680;9.004;2023-02-28T06:06:50;-2.00;99.90
10433;DHT22;5263;48.680;9.004;2023-02-28T06:09:17;-2.10;99.90
10433;DHT22;5263;48.680;9.004;2023-02-28T06:11:43;-2.20;99.90
10433;DHT22;5263;48.680;9.004;2023-02-28T06:14:15;-2.30;99.90
10433;DHT22;5263;48.680;9.004;2023-02-28T06:16:41;-2.30;99.90
10433;DHT22;5263;48.680;9.004;2023-02-28T06:19:08;-2.10;99.90
10433;DHT22;5263;48.680;9.004;2023-02-28T06:21:34;-2.20;99.90
10433;DHT22;5263;48.680;9.004;2023-02-28T06:24:00;-2.20;99.90
10433;DHT22;5263;48.680;9.004;2023-02-28T06:26:25;-2.40;99.90
10433;DHT22;5263;48.680;9.004;2023-02-28T06:28:51;-2.10;99.90
10433;DHT22;5263;48.680;9.004;2023-02-28T06:31:17;-2.10;99.90
10433;DHT22;5263;48.680;9.004;2023-02-28T06:33:44;-2.00;99.90
10433;DHT22;5263;48.680;9.004;2023-02-28T06:36:12;-2.20;99.90
10433;DHT22;5263;48.680;9.004;2023-02-28T06:38:38;-2.20;99.90
10433;DHT22;5263;48.680;9.004;2023-02-28T06:41:05;-2.10;99.90
10433;DHT22;5263;48.680;9.004;2023-02-28T06:43:35;-2.10;99.90
10433;DHT22;5263;48.680;9.004;2023-02-28T06:46:03;-2.00;99.90
10433;DHT22;5263;48.680;9.004;2023-02-28T06:48:29;-2.20;99.90
10433;DHT22;5263;48.680;9.004;2023-02-28T06:51:10;-2.20;99.90
10433;DHT22;5263;48.680;9.004;2023-02-28T06:53:37;-2.10;99.90
10433;DHT22;5263;48.680;9.004;2023-02-28T06:56:05;-2.00;99.90
10433;DHT22;5263;48.680;9.004;2023-02-28T06:58:31;-2.00;99.90
10433;DHT22;5263;48.680;9.004;2023-02-28T07:00:57;-2.10;99.90
10433;DHT22;5263;48.680;9.004;2023-02-28T07:03:23;-2.10;99.90
10433;DHT22;5263;48.680;9.004;2023-02-28T07:05:49;-2.00;99.90
10433;DHT22;5263;48.680;9.004;2023-02-28T07:08:15;-1.90;99.90
10433;DHT22;5263;48.680;9.004;2023-02-28T07:10:41;-1.70;99.90
10433;DHT22;5263;48.680;9.004;2023-02-28T07:13:07;-2.00;99.90
10433;DHT22;5263;48.680;9.004;2023-02-28T07:15:34;-1.80;99.90
10433;DHT22;5263;48.680;9.004;2023-02-28T07:17:59;-1.90;99.90
10433;DHT22;5263;48.680;9.004;2023-02-28T07:20:25;-2.00;99.90
10433;DHT22;5263;48.680;9.004;2023-02-28T07:22:51;-1.80;99.90
10433;DHT22;5263;48.680;9.004;2023-02-28T07:25:28;-1.70;99.90
10433;DHT22;5263;48.680;9.004;2023-02-28T07:27:55;-1.50;99.90
10433;DHT22;5263;48.680;9.004;2023-02-28T07:30:21;-1.40;99.90
10433;DHT22;5263;48.680;9.004;2023-02-28T07:32:47;-1.40;99.90
10433;DHT22;5263;48.680;9.004;2023-02-28T07:35:13;-1.30;99.90
10433;DHT22;5263;48.680;9.004;2023-02-28T07:37:41;-1.20;99.90
10433;DHT22;5263;48.680;9.004;2023-02-28T07:40:08;-1.20;99.90
10433;DHT22;5263;48.680;9.004;2023-02-28T07:42:36;-1.40;99.90
10433;DHT22;5263;48.680;9.004;2023-02-28T07:45:02;-1.70;99.90
10433;DHT22;5263;48.680;9.004;2023-02-28T07:47:29;-1.60;99.90
10433;DHT22;5263;48.680;9.004;2023-02-28T07:49:55;-1.50;99.90
10433;DHT22;5263;48.680;9.004;2023-02-28T07:52:21;-1.40;99.90
10433;DHT22;5263;48.680;9.004;2023-02-28T07:54:48;-1.50;99.90
10433;DHT22;5263;48.680;9.004;2023-02-28T07:57:14;-1.30;99.90
10433;DHT22;5263;48.680;9.004;2023-02-28T07:59:40;-1.20;99.90
10433;DHT22;5263;48.680;9.004;2023-02-28T08:02:05;-1.20;99.90
10433;DHT22;5263;48.680;9.004;2023-02-28T08:04:34;-1.20;99.90
10433;DHT22;5263;48.680;9.004;2023-02-28T08:07:00;-1.20;99.90
10433;DHT22;5263;48.680;9.004;2023-02-28T08:09:26;-1.20;99.90
10433;DHT22;5263;48.680;9.004;2023-02-28T08:11:51;-1.10;99.90
10433;DHT22;5263;48.680;9.004;2023-02-28T08:14:17;-1.10;99.90
10433;DHT22;5263;48.680;9.004;2023-02-28T08:16:43;-1.00;99.90
10433;DHT22;5263;48.680;9.004;2023-02-28T08:19:09;-0.90;99.90
10433;DHT22;5263;48.680;9.004;2023-02-28T08:21:34;-0.80;99.90
10433;DHT22;5263;48.680;9.004;2023-02-28T08:24:00;-0.80;99.90
10433;DHT22;5263;48.680;9.004;2023-02-28T08:26:26;-0.90;99.90
10433;DHT22;5263;48.680;9.004;2023-02-28T08:28:51;-0.80;99.90
10433;DHT22;5263;48.680;9.004;2023-02-28T08:31:18;-0.70;99.90
10433;DHT22;5263;48.680;9.004;2023-02-28T08:33:43;-0.60;99.90
10433;DHT22;5263;48.680;9.004;2023-02-28T08:36:15;-0.80;99.90
10433;DHT22;5263;48.680;9.004;2023-02-28T08:38:40;-0.80;99.90
10433;DHT22;5263;48.680;9.004;2023-02-28T08:41:09;-0.90;99.90
10433;DHT22;5263;48.680;9.004;2023-02-28T08:43:35;-0.90;99.90
10433;DHT22;5263;48.680;9.004;2023-02-28T08:46:01;-1.30;99.90
10433;DHT22;5263;48.680;9.004;2023-02-28T08:48:28;-1.10;99.90
10433;DHT22;5263;48.680;9.004;2023-02-28T08:51:03;-1.00;99.90
10433;DHT22;5263;48.680;9.004;2023-02-28T08:53:30;-0.90;99.90
10433;DHT22;5263;48.680;9.004;2023-02-28T08:56:03;-0.90;99.90
10433;DHT22;5263;48.680;9.004;2023-02-28T08:58:30;-0.70;99.90
10433;DHT22;5263;48.680;9.004;2023-02-28T09:00:55;-0.60;99.90
10433;DHT22;5263;48.680;9.004;2023-02-28T09:03:22;-0.60;99.90
10433;DHT22;5263;48.680;9.004;2023-02-28T09:05:59;-0.60;99.90
10433;DHT22;5263;48.680;9.004;2023-02-28T09:08:26;-0.80;99.90
10433;DHT22;5263;48.680;9.004;2023-02-28T09:10:52;-0.70;99.90
10433;DHT22;5263;48.680;9.004;2023-02-28T09:13:20;-0.90;99.90
10433;DHT22;5263;48.680;9.004;2023-02-28T09:15:46;-0.90;99.90
10433;DHT22;5263;48.680;9.004;2023-02-28T09:18:12;-0.60;99.90
10433;DHT22;5263;48.680;9.004;2023-02-28T09:20:39;-1.00;99.90
10433;DHT22;5263;48.680;9.004;2023-02-28T09:23:06;-0.70;99.90
10433;DHT22;5263;48.680;9.004;2023-02-28T09:25:32;-1.00;99.90
10433;DHT22;5263;48.680;9.004;2023-02-28T09:27:57;-0.80;99.90
10433;DHT22;5263;48.680;9.004;2023-02-28T09:30:23;-0.60;99.90
10433;DHT22;5263;48.680;9.004;2023-02-28T09:32:49;-0.30;99.90
10433;DHT22;5263;48.680;9.004;2023-02-28T09:35:21;-0.30;99.90
10433;DHT22;5263;48.680;9.004;2023-02-28T09:37:51;-0.20;99.90
10433;DHT22;5263;48.680;9.004;2023-02-28T09:40:18;-0.20;99.90
10433;DHT22;5263;48.680;9.004;2023-02-28T09:42:46;-0.30;99.90
10433;DHT22;5263;48.680;9.004;2023-02-28T09:47:56;-0.30;99.90
10433;DHT22;5263;48.680;9.004;2023-02-28T09:50:43;-0.20;99.90
10433;DHT22;5263;48.680;9.004;2023-02-28T09:53:34;-0.10;99.90
10433;DHT22;5263;48.680;9.004;2023-02-28T09:56:15;-0.50;99.90
10433;DHT22;5263;48.680;9.004;2023-02-28T09:59:01;-0.70;99.90
10433;DHT22;5263;48.680;9.004;2023-02-28T10:02:08;-0.50;99.90
10433;DHT22;5263;48.680;9.004;2023-02-28T10:04:58;-0.40;99.90
10433;DHT22;5263;48.680;9.004;2023-02-28T10:09:55;-0.40;99.90
10433;DHT22;5263;48.680;9.004;2023-02-28T10:12:22;-0.50;99.90
10433;DHT22;5263;48.680;9.004;2023-02-28T10:14:51;-0.50;99.90
10433;DHT22;5263;48.680;9.004;2023-02-28T10:17:22;-0.30;99.90
10433;DHT22;5263;48.680;9.004;2023-02-28T10:22:22;0.20;99.90
10433;DHT22;5263;48.680;9.004;2023-02-28T10:24:51;0.50;99.90
10433;DHT22;5263;48.680;9.004;2023-02-28T10:27:27;0.60;99.90
10433;DHT22;5263;48.680;9.004;2023-02-28T10:29:56;0.10;99.90
10433;DHT22;5263;48.680;9.004;2023-02-28T10:32:33;0.30;99.90
10433;DHT22;5263;48.680;9.004;2023-02-28T10:35:26;0.50;99.90
10433;DHT22;5263;48.680;9.004;2023-02-28T10:37:58;0.70;99.90
10433;DHT22;5263;48.680;9.004;2023-02-28T10:40:26;0.80;99.90
10433;DHT22;5263;48.680;9.004;2023-02-28T10:45:39;1.10;99.90
10433;DHT22;5263;48.680;9.004;2023-02-28T10:58:32;1.50;99.90
10433;DHT22;5263;48.680;9.004;2023-02-28T11:01:13;1.80;99.90
10433;DHT22;5263;48.680;9.004;2023-02-28T11:03:39;2.00;99.90
10433;DHT22;5263;48.680;9.004;2023-02-28T11:06:17;1.90;99.90
10433;DHT22;5263;48.680;9.004;2023-02-28T11:09:03;1.90;99.90
10433;DHT22;5263;48.680;9.004;2023-02-28T11:11:40;2.20;99.90
10433;DHT22;5263;48.680;9.004;2023-02-28T11:14:25;2.90;99.90
10433;DHT22;5263;48.680;9.004;2023-02-28T11:16:52;3.60;99.90
10433;DHT22;5263;48.680;9.004;2023-02-28T11:19:26;3.30;99.90
10433;DHT22;5263;48.680;9.004;2023-02-28T11:22:00;3.20;99.90
10433;DHT22;5263;48.680;9.004;2023-02-28T11:24:42;3.10;99.90
10433;DHT22;5263;48.680;9.004;2023-02-28T11:29:55;2.70;99.90
10433;DHT22;5263;48.680;9.004;2023-02-28T11:32:24;2.50;99.90
10433;DHT22;5263;48.680;9.004;2023-02-28T11:35:24;2.90;99.90
10433;DHT22;5263;48.680;9.004;2023-02-28T11:37:51;4.50;99.90
10433;DHT22;5263;48.680;9.004;2023-02-28T11:40:21;5.30;99.90
10433;DHT22;5263;48.680;9.004;2023-02-28T11:42:57;5.50;99.90
10433;DHT22;5263;48.680;9.004;2023-02-28T11:48:23;7.10;97.60
10433;DHT22;5263;48.680;9.004;2023-02-28T11:56:47;12.00;84.70
10433;DHT22;5263;48.680;9.004;2023-02-28T12:11:16;9.00;77.40
10433;DHT22;5263;48.680;9.004;2023-02-28T12:13:51;11.90;78.50
10433;DHT22;5263;48.680;9.004;2023-02-28T12:25:37;12.20;68.70
10433;DHT22;5263;48.680;9.004;2023-02-28T12:28:09;11.10;67.40
10433;DHT22;5263;48.680;9.004;2023-02-28T12:30:41;9.50;74.40
10433;DHT22;5263;48.680;9.004;2023-02-28T12:33:15;7.80;76.10
10433;DHT22;5263;48.680;9.004;2023-02-28T12:35:55;7.00;83.00
10433;DHT22;5263;48.680;9.004;2023-02-28T12:41:14;8.10;81.10
10433;DHT22;5263;48.680;9.004;2023-02-28T12:43:45;8.50;78.90
10433;DHT22;5263;48.680;9.004;2023-02-28T12:46:19;7.10;84.30
10433;DHT22;5263;48.680;9.004;2023-02-28T12:48:50;7.70;84.20
10433;DHT22;5263;48.680;9.004;2023-02-28T12:51:19;9.30;81.20
10433;DHT22;5263;48.680;9.004;2023-02-28T12:56:56;10.50;75.30
10433;DHT22;5263;48.680;9.004;2023-02-28T12:59:29;10.40;71.90
10433;DHT22;5263;48.680;9.004;2023-02-28T13:10:40;13.90;63.50
10433;DHT22;5263;48.680;9.004;2023-02-28T13:13:18;15.70;58.90
10433;DHT22;5263;48.680;9.004;2023-02-28T13:18:50;13.30;58.10
10433;DHT22;5263;48.680;9.004;2023-02-28T13:21:32;14.40;58.20
10433;DHT22;5263;48.680;9.004;2023-02-28T13:24:08;13.20;57.70
10433;DHT22;5263;48.680;9.004;2023-02-28T13:34:31;12.50;56.70
10433;DHT22;5263;48.680;9.004;2023-02-28T13:39:51;11.70;61.10
10433;DHT22;5263;48.680;9.004;2023-02-28T13:45:19;9.40;68.10
10433;DHT22;5263;48.680;9.004;2023-02-28T13:50:31;8.80;67.40
10433;DHT22;5263;48.680;9.004;2023-02-28T13:55:48;11.20;67.00
10433;DHT22;5263;48.680;9.004;2023-02-28T13:58:43;11.50;65.80
10433;DHT22;5263;48.680;9.004;2023-02-28T14:01:27;13.00;62.40
10433;DHT22;5263;48.680;9.004;2023-02-28T14:04:38;12.00;60.90
10433;DHT22;5263;48.680;9.004;2023-02-28T14:07:07;11.70;60.70
10433;DHT22;5263;48.680;9.004;2023-02-28T14:09:49;9.00;63.90
10433;DHT22;5263;48.680;9.004;2023-02-28T14:18:51;8.80;70.20
10433;DHT22;5263;48.680;9.004;2023-02-28T14:21:09;9.00;69.20
10433;DHT22;5263;48.680;9.004;2023-02-28T14:26:23;9.40;69.40
10433;DHT22;5263;48.680;9.004;2023-02-28T14:31:54;9.10;71.40
10433;DHT22;5263;48.680;9.004;2023-02-28T14:34:52;9.10;72.20
10433;DHT22;5263;48.680;9.004;2023-02-28T14:37:28;8.40;73.50
10433;DHT22;5263;48.680;9.004;2023-02-28T14:39:54;8.30;72.00
10433;DHT22;5263;48.680;9.004;2023-02-28T14:42:34;7.80;74.10
10433;DHT22;5263;48.680;9.004;2023-02-28T14:45:01;7.30;75.00
10433;DHT22;5263;48.680;9.004;2023-02-28T14:47:35;7.10;77.50
10433;DHT22;5263;48.680;9.004;2023-02-28T14:50:02;6.90;78.40
10433;DHT22;5263;48.680;9.004;2023-02-28T14:52:31;7.80;77.60
10433;DHT22;5263;48.680;9.004;2023-02-28T14:55:00;8.00;75.80
10433;DHT22;5263;48.680;9.004;2023-02-28T14:57:32;7.00;74.20
10433;DHT22;5263;48.680;9.004;2023-02-28T15:02:38;8.10;76.00
10433;DHT22;5263;48.680;9.004;2023-02-28T15:07:35;8.20;74.80
10433;DHT22;5263;48.680;9.004;2023-02-28T15:10:21;9.00;75.70
10433;DHT22;5263;48.680;9.004;2023-02-28T15:13:11;9.50;73.20
10433;DHT22;5263;48.680;9.004;2023-02-28T15:15:55;8.80;73.50
10433;DHT22;5263;48.680;9.004;2023-02-28T15:21:07;9.00;73.90
10433;DHT22;5263;48.680;9.004;2023-02-28T15:23:37;8.00;74.10
10433;DHT22;5263;48.680;9.004;2023-02-28T15:26:03;8.10;74.60
10433;DHT22;5263;48.680;9.004;2023-02-28T15:28:30;8.10;74.50
10433;DHT22;5263;48.680;9.004;2023-02-28T15:31:03;7.80;75.20
10433;DHT22;5263;48.680;9.004;2023-02-28T15:33:33;7.30;75.60
10433;DHT22;5263;48.680;9.004;2023-02-28T15:36:10;7.60;76.30
10433;DHT22;5263;48.680;9.004;2023-02-28T15:38:37;7.70;75.40
10433;DHT22;5263;48.680;9.004;2023-02-28T15:41:02;8.10;76.40
10433;DHT22;5263;48.680;9.004;2023-02-28T15:43:36;7.40;74.50
10433;DHT22;5263;48.680;9.004;2023-02-28T15:46:03;7.20;78.20
10433;DHT22;5263;48.680;9.004;2023-02-28T15:48:35;7.40;78.50
10433;DHT22;5263;48.680;9.004;2023-02-28T15:53:35;7.00;79.00
10433;DHT22;5263;48.680;9.004;2023-02-28T15:56:06;6.60;80.00
10433;DHT22;5263;48.680;9.004;2023-02-28T15:58:38;6.60;78.60
10433;DHT22;5263;48.680;9.004;2023-02-28T16:03:42;6.50;80.50
10433;DHT22;5263;48.680;9.004;2023-02-28T16:09:00;5.40;83.90
10433;DHT22;5263;48.680;9.004;2023-02-28T16:11:26;5.10;87.40
10433;DHT22;5263;48.680;9.004;2023-02-28T16:13:53;5.00;86.10
10433;DHT22;5263;48.680;9.004;2023-02-28T16:16:22;5.10;87.30
10433;DHT22;5263;48.680;9.004;2023-02-28T16:18:48;5.10;86.90
10433;DHT22;5263;48.680;9.004;2023-02-28T16:21:14;5.00;87.70
10433;DHT22;5263;48.680;9.004;2023-02-28T16:23:40;5.00;87.40
10433;DHT22;5263;48.680;9.004;2023-02-28T16:26:06;4.70;88.10
10433;DHT22;5263;48.680;9.004;2023-02-28T16:28:35;4.40;89.10
10433;DHT22;5263;48.680;9.004;2023-02-28T16:31:04;4.40;90.30
10433;DHT22;5263;48.680;9.004;2023-02-28T16:33:31;4.00;90.10
10433;DHT22;5263;48.680;9.004;2023-02-28T16:35:57;4.10;90.80
10433;DHT22;5263;48.680;9.004;2023-02-28T16:38:23;3.90;90.80
10433;DHT22;5263;48.680;9.004;2023-02-28T16:40:50;3.70;91.60
10433;DHT22;5263;48.680;9.004;2023-02-28T16:43:19;3.50;92.40
10433;DHT22;5263;48.680;9.004;2023-02-28T16:45:46;3.50;93.00
10433;DHT22;5263;48.680;9.004;2023-02-28T16:48:15;3.60;93.00
10433;DHT22;5263;48.680;9.004;2023-02-28T16:50:41;3.50;93.40
10433;DHT22;5263;48.680;9.004;2023-02-28T16:53:07;3.40;93.60
10433;DHT22;5263;48.680;9.004;2023-02-28T16:55:35;3.30;94.40
10433;DHT22;5263;48.680;9.004;2023-02-28T16:58:01;2.90;94.70
10433;DHT22;5263;48.680;9.004;2023-02-28T17:00:30;2.80;95.40
10433;DHT22;5263;48.680;9.004;2023-02-28T17:02:56;2.80;96.50
10433;DHT22;5263;48.680;9.004;2023-02-28T17:05:22;2.80;97.20
10433;DHT22;5263;48.680;9.004;2023-02-28T17:07:49;2.70;97.60
10433;DHT22;5263;48.680;9.004;2023-02-28T17:10:25;2.40;97.80
10433;DHT22;5263;48.680;9.004;2023-02-28T17:12:51;2.50;98.70
10433;DHT22;5263;48.680;9.004;2023-02-28T17:15:18;2.40;99.20
10433;DHT22;5263;48.680;9.004;2023-02-28T17:17:46;2.30;99.30
10433;DHT22;5263;48.680;9.004;2023-02-28T17:20:18;2.40;99.90
10433;DHT22;5263;48.680;9.004;2023-02-28T17:22:44;2.30;99.90
10433;DHT22;5263;48.680;9.004;2023-02-28T17:25:10;2.20;99.90
10433;DHT22;5263;48.680;9.004;2023-02-28T17:27:37;2.20;99.90
10433;DHT22;5263;48.680;9.004;2023-02-28T17:30:12;2.00;99.90
10433;DHT22;5263;48.680;9.004;2023-02-28T17:32:38;2.00;99.90
10433;DHT22;5263;48.680;9.004;2023-02-28T17:35:04;2.00;99.90
10433;DHT22;5263;48.680;9.004;2023-02-28T17:37:30;2.10;99.90
10433;DHT22;5263;48.680;9.004;2023-02-28T17:39:56;2.00;99.90
10433;DHT22;5263;48.680;9.004;2023-02-28T17:42:21;1.90;99.90
10433;DHT22;5263;48.680;9.004;2023-02-28T17:44:47;1.70;99.90
10433;DHT22;5263;48.680;9.004;2023-02-28T17:47:13;1.60;99.90
10433;DHT22;5263;48.680;9.004;2023-02-28T17:49:38;1.60;99.90
10433;DHT22;5263;48.680;9.004;2023-02-28T17:52:04;1.70;99.90
10433;DHT22;5263;48.680;9.004;2023-02-28T17:54:29;2.60;99.90
10433;DHT22;5263;48.680;9.004;2023-02-28T17:56:55;1.60;99.90
10433;DHT22;5263;48.680;9.004;2023-02-28T17:59:21;1.60;99.90
10433;DHT22;5263;48.680;9.004;2023-02-28T18:01:46;1.50;99.90
10433;DHT22;5263;48.680;9.004;2023-02-28T18:04:12;1.50;99.90
10433;DHT22;5263;48.680;9.004;2023-02-28T18:06:43;1.40;99.90
10433;DHT22;5263;48.680;9.004;2023-02-28T18:09:19;1.40;99.90
10433;DHT22;5263;48.680;9.004;2023-02-28T18:11:53;1.50;99.90
10433;DHT22;5263;48.680;9.004;2023-02-28T18:14:20;1.30;99.90
10433;DHT22;5263;48.680;9.004;2023-02-28T18:16:48;1.20;99.90
10433;DHT22;5263;48.680;9.004;2023-02-28T18:19:14;1.20;99.90
10433;DHT22;5263;48.680;9.004;2023-02-28T18:21:47;1.20;99.90
10433;DHT22;5263;48.680;9.004;2023-02-28T18:24:14;1.90;99.90
10433;DHT22;5263;48.680;9.004;2023-02-28T18:26:40;1.20;99.90
10433;DHT22;5263;48.680;9.004;2023-02-28T18:29:06;1.00;99.90
10433;DHT22;5263;48.680;9.004;2023-02-28T18:31:32;0.90;99.90
10433;DHT22;5263;48.680;9.004;2023-02-28T18:33:58;0.90;99.90
10433;DHT22;5263;48.680;9.004;2023-02-28T18:36:24;0.80;99.90